Time;durP1;ratioP1;P1;durP2;ratioP2;P2;SDS_P1;SDS_P2;PMS_P1;PMS_P2;Temp;Humidity;BMP_temperature;BMP_pressure;BME280_temperature;BME280_humidity;BME280_pressure;Samples;Min_cycle;Max_cycle;Signal;HPM_P1;HPM_P2
2022/05/26 00:01:29;;;;;;;;;;;;;;;15.16;54.68;101394.41;5085803;28;20372;-78
2022/05/26 00:03:54;;;;;;;;;;;;;;;15.27;54.73;101391.47;5086025;28;19931;-78
2022/05/26 00:06:21;;;;;;;;;;;;;;;15.25;55.48;101395.88;5060874;28;19944;-78
2022/05/26 00:08:47;;;;;;;;;;;;;;;15.23;55.14;101401.19;5086740;28;20380;-78
2022/05/26 00:11:13;;;;;;;;;;;;;;;15.21;55.62;101395.13;5087269;28;19972;-78
2022/05/26 00:13:40;;;;;;;;;;;;;;;15.24;55.71;101397.66;5088762;28;19931;-78
2022/05/26 00:16:05;;;;;;;;;;;;;;;15.23;55.97;101392.47;5089281;28;19935;-80
2022/05/26 00:18:31;;;;;;;;;;;;;;;15.22;56.15;101398.59;5093786;28;20304;-79
2022/05/26 00:20:57;;;;;;;;;;;;;;;15.19;56.35;101403.91;5089970;28;19923;-75
2022/05/26 00:23:22;;;;;;;;;;;;;;;15.22;55.69;101396.81;5085288;28;19921;-75
2022/05/26 00:25:47;;;;;;;;;;;;;;;15.24;56.17;101396.81;5090733;28;19924;-75
2022/05/26 00:28:13;;;;;;;;;;;;;;;15.13;56.35;101396.25;5087773;28;19924;-75
2022/05/26 00:30:38;;;;;;;;;;;;;;;15.14;56.71;101396.22;5086633;28;19935;-75
2022/05/26 00:33:05;;;;;;;;;;;;;;;15.18;57.01;101396.97;5066169;28;20357;-75
2022/05/26 00:35:34;;;;;;;;;;;;;;;15.22;56.60;101399.44;5089143;28;19927;-75
2022/05/26 00:38:00;;;;;;;;;;;;;;;15.12;58.08;101398.03;5088999;28;19924;-75
2022/05/26 00:40:26;;;;;;;;;;;;;;;15.09;58.01;101392.88;5090507;28;19924;-75
2022/05/26 00:42:51;;;;;;;;;;;;;;;15.08;58.13;101398.16;5088289;28;19927;-75
2022/05/26 00:45:16;;;;;;;;;;;;;;;15.17;57.89;101395.25;5085899;28;19927;-75
2022/05/26 00:47:44;;;;;;;;;;;;;;;15.08;58.01;101401.63;5089661;28;19916;-80
2022/05/26 00:50:18;;;;;;;;;;;;;;;15.08;58.21;101396.41;5086312;28;20296;-80
2022/05/26 00:52:54;;;;;;;;;;;;;;;15.07;58.68;101388.56;5084441;28;20048;-80
2022/05/26 00:55:23;;;;;;;;;;;;;;;15.13;58.77;101389.25;5070368;28;19921;-80
2022/05/26 00:58:04;;;;;;;;;;;;;;;15.10;59.31;101388.47;5069665;28;19982;-80
2022/05/26 01:00:33;;;;;;;;;;;;;;;15.08;58.79;101388.53;5070393;28;19963;-80
2022/05/26 01:03:05;;;;;;;;;;;;;;;14.97;59.63;101389.75;5072122;28;20365;-80
2022/05/26 01:05:40;;;;;;;;;;;;;;;15.07;59.41;101389.44;5092928;28;19990;-80
2022/05/26 01:08:10;;;;;;;;;;;;;;;15.02;59.49;101390.47;5087891;28;19946;-80
2022/05/26 01:10:35;;;;;;;;;;;;;;;15.00;58.99;101381.81;5084858;28;20038;-80
2022/05/26 01:13:00;;;;;;;;;;;;;;;15.00;60.06;101390.53;5091834;28;20011;-80
2022/05/26 01:15:29;;;;;;;;;;;;;;;15.00;59.75;101390.53;5090530;28;19927;-80
2022/05/26 01:17:54;;;;;;;;;;;;;;;14.92;60.17;101392.50;5090469;28;19920;-80
2022/05/26 01:20:49;;;;;;;;;;;;;;;14.99;60.13;101391.44;5069038;28;19934;-80
2022/05/26 01:23:17;;;;;;;;;;;;;;;14.91;60.07;101396.03;5086817;28;19925;-80
2022/05/26 01:26:05;;;;;;;;;;;;;;;14.96;59.49;101395.88;5087436;28;19924;-78
2022/05/26 01:28:40;;;;;;;;;;;;;;;14.81;59.96;101398.06;5087265;28;19920;-78
2022/05/26 01:31:34;;;;;;;;;;;;;;;14.97;59.78;101401.09;5088186;28;20562;-80
2022/05/26 01:34:11;;;;;;;;;;;;;;;14.91;60.03;101397.78;5041103;28;19931;-75
2022/05/26 01:36:39;;;;;;;;;;;;;;;14.95;60.29;101394.19;5088423;28;19920;-78
2022/05/26 01:39:08;;;;;;;;;;;;;;;14.95;60.09;101391.56;5087496;28;19916;-75
2022/05/26 01:41:45;;;;;;;;;;;;;;;15.00;59.09;101387.06;5090983;28;19919;-75
2022/05/26 01:44:22;;;;;;;;;;;;;;;14.97;59.28;101390.63;5088968;28;20008;-75
2022/05/26 01:46:50;;;;;;;;;;;;;;;14.89;60.68;101397.81;5079053;28;20003;-75
2022/05/26 01:49:18;;;;;;;;;;;;;;;14.93;60.48;101395.97;5073882;28;19964;-75
2022/05/26 01:51:51;;;;;;;;;;;;;;;14.90;60.41;101393.44;5086766;28;20455;-75
2022/05/26 01:54:19;;;;;;;;;;;;;;;14.97;60.05;101395.00;5087186;28;19923;-75
2022/05/26 01:56:54;;;;;;;;;;;;;;;14.98;59.90;101402.78;5070342;28;19920;-75
2022/05/26 01:59:28;;;;;;;;;;;;;;;14.82;60.36;101394.53;5086438;28;19931;-78
2022/05/26 02:02:02;;;;;;;;;;;;;;;14.97;59.98;101389.75;5068750;28;19927;-80
2022/05/26 02:04:32;;;;;;;;;;;;;;;14.92;60.86;101400.34;5086174;28;20424;-80
2022/05/26 02:07:08;;;;;;;;;;;;;;;14.80;60.22;101391.09;5094886;28;19928;-75
2022/05/26 02:09:41;;;;;;;;;;;;;;;14.91;59.92;101393.41;5065706;28;20347;-79
2022/05/26 02:12:12;;;;;;;;;;;;;;;14.85;59.97;101394.47;5066667;28;19962;-79
2022/05/26 02:14:45;;;;;;;;;;;;;;;14.81;60.56;101398.06;5068131;28;19922;-75
2022/05/26 02:17:18;;;;;;;;;;;;;;;14.91;59.85;101398.66;5085321;28;19927;-75
2022/05/26 02:19:49;;;;;;;;;;;;;;;14.79;60.80;101399.84;5091348;28;19920;-75
2022/05/26 02:22:43;;;;;;;;;;;;;;;14.88;60.68;101403.97;5088970;28;20589;-79
2022/05/26 02:25:19;;;;;;;;;;;;;;;14.88;60.75;101411.81;5012397;28;19925;-75
2022/05/26 02:27:46;;;;;;;;;;;;;;;14.83;60.88;101404.09;5086073;28;19970;-75
2022/05/26 02:30:12;;;;;;;;;;;;;;;14.67;61.90;101410.63;5085359;28;19939;-78
2022/05/26 02:32:43;;;;;;;;;;;;;;;14.81;60.87;101403.28;5089318;28;19935;-78
2022/05/26 02:35:11;;;;;;;;;;;;;;;14.72;61.62;101408.72;5066096;28;19934;-78
2022/05/26 02:37:37;;;;;;;;;;;;;;;14.65;61.61;101404.56;5082161;28;19950;-80
2022/05/26 02:40:04;;;;;;;;;;;;;;;14.76;61.12;101406.94;5087637;28;20353;-80
2022/05/26 02:42:29;;;;;;;;;;;;;;;14.77;61.00;101412.09;5084625;28;19963;-79
2022/05/26 02:44:55;;;;;;;;;;;;;;;14.73;61.54;101414.81;5085419;28;19994;-79
2022/05/26 02:47:35;;;;;;;;;;;;;;;14.58;62.19;101410.00;5086608;28;19935;-79
2022/05/26 02:50:07;;;;;;;;;;;;;;;14.79;60.87;101417.31;5083254;28;19975;-75
2022/05/26 02:52:50;;;;;;;;;;;;;;;14.80;60.67;101419.00;5083742;28;19931;-75
2022/05/26 02:55:22;;;;;;;;;;;;;;;14.72;61.56;101424.44;5087376;28;19950;-75
2022/05/26 02:58:08;;;;;;;;;;;;;;;14.78;61.50;101423.44;5088358;28;19966;-75
2022/05/26 03:00:52;;;;;;;;;;;;;;;14.74;61.26;101425.25;5086202;28;19924;-75
2022/05/26 03:03:36;;;;;;;;;;;;;;;14.62;62.46;101422.13;5081540;28;19920;-75
2022/05/26 03:06:02;;;;;;;;;;;;;;;14.65;62.22;101422.03;5091409;28;19931;-75
2022/05/26 03:08:28;;;;;;;;;;;;;;;14.62;62.17;101425.56;5087496;28;19924;-80
2022/05/26 03:11:01;;;;;;;;;;;;;;;14.66;62.25;101424.59;5087201;28;19928;-79
2022/05/26 03:13:27;;;;;;;;;;;;;;;14.67;62.66;101428.06;5083216;28;19924;-80
2022/05/26 03:15:54;;;;;;;;;;;;;;;14.68;61.50;101435.03;5068557;28;20018;-78
2022/05/26 03:18:19;;;;;;;;;;;;;;;14.80;61.31;101443.41;5083979;28;20269;-75
2022/05/26 03:20:44;;;;;;;;;;;;;;;14.67;62.00;101436.78;5085097;28;19927;-75
2022/05/26 03:23:09;;;;;;;;;;;;;;;14.77;61.89;101446.09;5088511;28;19924;-77
2022/05/26 03:25:35;;;;;;;;;;;;;;;14.83;62.16;101440.69;5088213;28;19931;-78
2022/05/26 03:28:00;;;;;;;;;;;;;;;14.73;61.73;101441.84;5088133;28;20412;-78
2022/05/26 03:30:25;;;;;;;;;;;;;;;14.78;61.90;101444.34;5088709;28;19928;-78
2022/05/26 03:32:51;;;;;;;;;;;;;;;14.87;61.57;101450.19;5089428;28;19926;-78
2022/05/26 03:40:56;;;;;;;;;;;;;;;14.69;62.24;101442.81;5088556;28;19932;-78
2022/05/26 03:43:32;;;;;;;;;;;;;;;14.66;62.29;101455.97;5066086;28;19930;-78
2022/05/26 03:45:58;;;;;;;;;;;;;;;14.75;62.40;101455.75;5080709;28;19952;-78
2022/05/26 03:48:23;;;;;;;;;;;;;;;14.70;62.82;101451.53;5084278;28;19920;-78
2022/05/26 03:50:48;;;;;;;;;;;;;;;14.68;62.56;101458.56;5087510;28;19930;-78
2022/05/26 03:53:14;;;;;;;;;;;;;;;14.69;63.09;101461.13;5088650;28;20019;-78
2022/05/26 03:55:40;;;;;;;;;;;;;;;14.69;63.42;101461.13;5083609;28;20014;-78
2022/05/26 03:58:05;;;;;;;;;;;;;;;14.68;62.99;101462.00;5085382;28;19931;-80
2022/05/26 04:00:31;;;;;;;;;;;;;;;14.64;63.59;101462.16;5067524;28;19924;-79
2022/05/26 04:02:56;;;;;;;;;;;;;;;14.67;63.71;101469.91;5083059;28;19923;-80
2022/05/26 04:05:22;;;;;;;;;;;;;;;14.72;63.30;101462.78;5092425;28;19923;-80
2022/05/26 04:07:47;;;;;;;;;;;;;;;14.65;63.81;101469.09;5089524;28;19982;-80
2022/05/26 04:10:13;;;;;;;;;;;;;;;14.63;64.20;101476.09;5088842;28;19928;-80
2022/05/26 04:12:39;;;;;;;;;;;;;;;14.66;64.15;101476.91;5084796;28;20400;-80
2022/05/26 04:15:05;;;;;;;;;;;;;;;14.69;64.82;101473.34;5089613;28;19916;-79
2022/05/26 04:17:31;;;;;;;;;;;;;;;14.62;65.32;101471.78;5088988;28;20043;-80
2022/05/26 04:19:56;;;;;;;;;;;;;;;14.44;64.89;101474.88;5084802;28;20010;-78
2022/05/26 04:22:24;;;;;;;;;;;;;;;14.61;63.76;101468.31;5068587;28;19923;-80
2022/05/26 04:24:56;;;;;;;;;;;;;;;14.63;64.05;101481.34;5088952;28;19928;-80
2022/05/26 04:27:23;;;;;;;;;;;;;;;14.72;63.50;101473.25;5085823;28;20008;-80
2022/05/26 04:29:48;;;;;;;;;;;;;;;14.50;64.25;101475.56;5088130;28;20011;-75
2022/05/26 04:32:14;;;;;;;;;;;;;;;14.62;64.62;101485.69;5063340;28;20030;-77
2022/05/26 04:34:40;;;;;;;;;;;;;;;14.56;64.69;101490.25;5088594;28;20401;-78
2022/05/26 04:37:06;;;;;;;;;;;;;;;14.64;64.91;101491.78;5100539;28;19957;-78
2022/05/26 04:39:31;;;;;;;;;;;;;;;14.56;64.54;101498.94;5097086;28;19923;-78
2022/05/26 04:41:58;;;;;;;;;;;;;;;14.56;65.07;101496.31;5093621;28;20292;-75
2022/05/26 04:44:23;;;;;;;;;;;;;;;14.66;64.82;101496.94;5096337;28;20400;-77
2022/05/26 04:46:49;;;;;;;;;;;;;;;14.67;64.13;101496.94;5091106;28;19916;-75
2022/05/26 04:49:14;;;;;;;;;;;;;;;14.72;63.89;101497.66;5089763;28;19928;-77
2022/05/26 04:51:39;;;;;;;;;;;;;;;14.73;63.32;101504.59;5094900;28;20376;-79
2022/05/26 04:54:06;;;;;;;;;;;;;;;14.72;63.59;101504.63;5077874;28;19923;-78
2022/05/26 04:56:31;;;;;;;;;;;;;;;14.53;65.01;101504.25;5081588;28;19923;-80
2022/05/26 04:58:57;;;;;;;;;;;;;;;14.60;64.13;101500.59;5073063;28;19977;-78
2022/05/26 05:01:22;;;;;;;;;;;;;;;14.66;63.98;101507.41;5098032;28;20292;-75
2022/05/26 05:03:48;;;;;;;;;;;;;;;14.65;63.48;101511.78;5096595;28;19920;-78
2022/05/26 05:06:14;;;;;;;;;;;;;;;14.60;63.92;101518.88;5096342;28;19915;-79
2022/05/26 05:08:39;;;;;;;;;;;;;;;14.72;63.72;101509.88;5097106;28;19931;-80
2022/05/26 05:11:05;;;;;;;;;;;;;;;14.68;64.02;101503.84;5096164;28;19924;-77
2022/05/26 05:13:32;;;;;;;;;;;;;;;14.70;64.12;101514.28;5094966;28;19931;-75
2022/05/26 05:16:00;;;;;;;;;;;;;;;14.67;63.88;101515.22;5098993;28;19920;-75
2022/05/26 05:18:25;;;;;;;;;;;;;;;14.75;64.19;101513.28;5093311;28;19977;-75
2022/05/26 05:20:52;;;;;;;;;;;;;;;14.67;64.26;101519.59;5097601;28;19928;-80
2022/05/26 05:23:18;;;;;;;;;;;;;;;14.67;65.22;101527.44;5095600;28;19935;-80
2022/05/26 05:25:46;;;;;;;;;;;;;;;14.70;64.58;101528.22;5088982;28;19920;-75
2022/05/26 05:28:14;;;;;;;;;;;;;;;14.60;64.85;101529.34;5093541;28;19977;-75
2022/05/26 05:30:43;;;;;;;;;;;;;;;14.64;64.79;101536.22;5094447;28;19927;-80
2022/05/26 05:33:08;;;;;;;;;;;;;;;14.65;64.56;101537.91;5091980;28;19912;-75
2022/05/26 05:35:38;;;;;;;;;;;;;;;14.49;65.39;101540.97;5096415;28;19919;-75
2022/05/26 05:38:04;;;;;;;;;;;;;;;14.69;64.38;101542.19;5090424;28;19924;-78
2022/05/26 05:40:30;;;;;;;;;;;;;;;14.66;65.10;101531.81;5088422;28;19922;-78
2022/05/26 05:42:55;;;;;;;;;;;;;;;14.71;64.82;101542.16;5073511;28;19928;-79
2022/05/26 05:45:21;;;;;;;;;;;;;;;14.72;64.71;101542.13;5090149;28;19924;-78
2022/05/26 05:47:46;;;;;;;;;;;;;;;14.78;63.83;101543.75;5093298;28;20404;-79
2022/05/26 05:50:11;;;;;;;;;;;;;;;14.70;64.38;101546.53;5092299;28;20261;-79
2022/05/26 05:52:36;;;;;;;;;;;;;;;14.76;64.55;101549.03;5089408;28;20025;-79
2022/05/26 05:55:04;;;;;;;;;;;;;;;14.85;64.44;101555.78;5074755;28;19920;-79
2022/05/26 05:57:29;;;;;;;;;;;;;;;14.76;64.81;101551.63;5094675;28;20415;-79
2022/05/26 05:59:55;;;;;;;;;;;;;;;14.80;64.41;101558.50;5094273;28;20011;-75
2022/05/26 06:02:20;;;;;;;;;;;;;;;14.72;65.74;101563.03;5074288;28;19931;-75
2022/05/26 06:04:45;;;;;;;;;;;;;;;14.78;65.06;101564.66;5096629;28;19964;-79
2022/05/26 06:07:15;;;;;;;;;;;;;;;14.69;64.99;101563.13;5065872;28;19931;-79
2022/05/26 06:09:40;;;;;;;;;;;;;;;14.80;64.91;101571.56;5086964;28;20377;-79
2022/05/26 06:12:07;;;;;;;;;;;;;;;14.86;65.29;101566.19;5069012;28;19919;-79
2022/05/26 06:14:33;;;;;;;;;;;;;;;14.83;65.04;101562.78;5073117;28;19923;-80
2022/05/26 06:16:58;;;;;;;;;;;;;;;14.69;65.53;101568.34;5095440;28;20278;-80
2022/05/26 06:19:23;;;;;;;;;;;;;;;14.65;65.80;101571.91;5084017;28;19924;-80
2022/05/26 06:21:48;;;;;;;;;;;;;;;14.86;65.63;101568.78;5077849;28;20301;-79
2022/05/26 06:24:14;;;;;;;;;;;;;;;14.93;65.07;101581.72;5091418;28;19974;-79
2022/05/26 06:26:39;;;;;;;;;;;;;;;14.87;65.37;101575.75;5073222;28;19981;-80
2022/05/26 06:37:16;;;;;;;;;;;;;;;14.79;64.09;101582.94;5084392;28;19970;-80
2022/05/26 06:39:42;;;;;;;;;;;;;;;14.93;63.74;101585.19;5086543;28;19920;-79
2022/05/26 06:42:08;;;;;;;;;;;;;;;14.96;64.18;101590.34;5065356;28;19920;-75
2022/05/26 06:44:36;;;;;;;;;;;;;;;15.07;64.25;101600.53;5087179;28;19916;-75
2022/05/26 06:47:02;;;;;;;;;;;;;;;14.91;64.04;101601.84;5086539;28;19928;-78
2022/05/26 06:49:27;;;;;;;;;;;;;;;15.03;63.70;101597.16;5086542;28;19927;-80
2022/05/26 06:51:52;;;;;;;;;;;;;;;15.13;64.08;101600.38;5084973;28;19924;-80
2022/05/26 06:54:18;;;;;;;;;;;;;;;15.18;63.60;101602.00;5091061;28;19927;-74
2022/05/26 06:56:43;;;;;;;;;;;;;;;15.10;64.05;101605.69;5087495;28;20535;-79
2022/05/26 06:59:08;;;;;;;;;;;;;;;15.17;63.61;101610.72;5071022;28;19934;-75
2022/05/26 07:01:33;;;;;;;;;;;;;;;15.25;62.98;101611.38;5086718;28;19965;-79
2022/05/26 07:03:59;;;;;;;;;;;;;;;15.21;63.48;101620.22;5074585;28;19924;-78
2022/05/26 07:06:30;;;;;;;;;;;;;;;15.18;63.06;101615.06;5064163;28;19930;-80
2022/05/26 07:08:56;;;;;;;;;;;;;;;15.28;63.37;101616.53;5070041;28;19970;-78
2022/05/26 07:11:22;;;;;;;;;;;;;;;15.14;63.61;101625.66;5069624;28;19931;-80
2022/05/26 07:13:47;;;;;;;;;;;;;;;15.22;63.53;101621.91;5072217;28;19935;-80
2022/05/26 07:16:13;;;;;;;;;;;;;;;15.24;62.89;101622.75;5085130;28;19924;-79
2022/05/26 07:18:39;;;;;;;;;;;;;;;15.24;63.11;101632.38;5086934;28;19928;-78
2022/05/26 07:21:06;;;;;;;;;;;;;;;15.25;63.02;101632.31;5084809;28;19928;-78
2022/05/26 07:23:31;;;;;;;;;;;;;;;15.26;62.98;101639.28;5069429;28;19955;-78
2022/05/26 07:25:56;;;;;;;;;;;;;;;15.31;63.44;101634.75;5085467;28;19978;-80
2022/05/26 07:28:23;;;;;;;;;;;;;;;15.38;63.47;101635.47;5083305;28;20407;-80
2022/05/26 07:30:49;;;;;;;;;;;;;;;15.33;64.35;101639.97;5056797;28;20564;-80
2022/05/26 07:33:14;;;;;;;;;;;;;;;15.32;64.25;101643.50;5083894;28;19920;-79
2022/05/26 07:35:40;;;;;;;;;;;;;;;15.36;64.29;101650.38;5083487;28;19920;-80
2022/05/26 07:43:34;;;;;;;;;;;;;;;15.32;64.29;101659.19;5083660;28;19967;-80
2022/05/26 07:45:59;;;;;;;;;;;;;;;15.29;64.18;101656.66;5083138;28;19924;-80
2022/05/26 07:48:25;;;;;;;;;;;;;;;15.32;64.05;101660.06;5084957;28;20504;-80
2022/05/26 07:50:50;;;;;;;;;;;;;;;15.30;64.19;101658.38;5084666;28;20332;-80
2022/05/26 07:53:15;;;;;;;;;;;;;;;15.35;64.09;101664.34;5085361;28;19920;-80
2022/05/26 07:55:42;;;;;;;;;;;;;;;15.28;63.49;101663.66;5086659;28;19924;-80
2022/05/26 07:58:11;;;;;;;;;;;;;;;15.30;62.96;101661.00;5063707;28;20330;-79
2022/05/26 08:00:38;;;;;;;;;;;;;;;15.30;63.93;101659.22;5086338;28;19920;-80
2022/05/26 08:03:03;;;;;;;;;;;;;;;15.36;64.82;101666.09;5088929;28;20031;-79
2022/05/26 08:05:29;;;;;;;;;;;;;;;15.35;63.93;101664.34;5088986;28;20022;-79
2022/05/26 08:07:54;;;;;;;;;;;;;;;15.39;64.29;101666.00;5088722;28;20289;-79
2022/05/26 08:10:20;;;;;;;;;;;;;;;15.47;64.27;101661.41;5085829;28;20389;-79
2022/05/26 08:12:45;;;;;;;;;;;;;;;15.53;63.99;101665.63;5081627;28;19955;-79
2022/05/26 08:15:11;;;;;;;;;;;;;;;15.45;63.25;101667.59;5084749;28;19924;-79
2022/05/26 08:17:36;;;;;;;;;;;;;;;15.47;62.49;101664.03;5084878;28;20011;-79
2022/05/26 08:20:02;;;;;;;;;;;;;;;15.47;62.22;101669.25;5067358;28;19924;-79
2022/05/26 08:22:27;;;;;;;;;;;;;;;15.45;62.63;101668.44;5084199;28;19948;-78
2022/05/26 08:24:54;;;;;;;;;;;;;;;15.48;62.05;101675.38;5083548;28;20284;-78
2022/05/26 08:27:20;;;;;;;;;;;;;;;15.56;62.88;101682.09;5086671;28;19920;-80
2022/05/26 08:29:45;;;;;;;;;;;;;;;15.56;62.21;101676.00;5087809;28;19916;-79
2022/05/26 08:32:11;;;;;;;;;;;;;;;15.58;62.51;101676.81;5058863;28;19928;-79
2022/05/26 08:34:36;;;;;;;;;;;;;;;15.47;62.60;101684.97;5069444;28;19990;-79
2022/05/26 08:37:03;;;;;;;;;;;;;;;15.55;61.47;101684.75;5087918;28;19935;-79
2022/05/26 08:39:30;;;;;;;;;;;;;;;15.62;61.52;101686.31;5091683;28;20026;-79
2022/05/26 08:41:55;;;;;;;;;;;;;;;15.57;60.22;101693.44;5091518;28;19920;-80
2022/05/26 08:44:23;;;;;;;;;;;;;;;15.64;61.03;101690.59;5092094;28;19920;-80
2022/05/26 08:47:09;;;;;;;;;;;;;;;15.71;59.70;101699.16;5073678;28;19931;-80
2022/05/26 08:49:36;;;;;;;;;;;;;;;15.78;60.28;101698.09;5076898;28;20024;-80
2022/05/26 08:52:08;;;;;;;;;;;;;;;15.78;60.41;101704.22;5072184;28;20469;-79
2022/05/26 08:54:39;;;;;;;;;;;;;;;15.87;60.69;101711.81;5093994;28;19950;-79
2022/05/26 08:57:08;;;;;;;;;;;;;;;15.85;60.53;101721.50;5092217;28;19923;-79
2022/05/26 08:59:38;;;;;;;;;;;;;;;15.64;59.10;101719.41;5088525;28;19916;-78
2022/05/26 09:02:04;;;;;;;;;;;;;;;15.64;58.47;101713.31;5092489;28;19924;-78
2022/05/26 09:04:30;;;;;;;;;;;;;;;15.70;59.28;101716.63;5093768;28;20284;-78
2022/05/26 09:15:13;;;;;;;;;;;;;;;15.71;61.03;101735.84;5090028;28;20391;-79
2022/05/26 09:17:39;;;;;;;;;;;;;;;15.81;60.88;101725.09;5090444;28;19916;-80
2022/05/26 09:20:21;;;;;;;;;;;;;;;15.91;60.40;101725.69;5074065;28;19920;-80
2022/05/26 09:22:46;;;;;;;;;;;;;;;15.93;61.38;101743.09;5090566;28;19932;-80
2022/05/26 09:25:29;;;;;;;;;;;;;;;15.98;60.82;101737.75;5088080;28;19928;-80
2022/05/26 09:27:54;;;;;;;;;;;;;;;16.08;60.59;101739.19;5092052;28;19927;-80
2022/05/26 09:30:20;;;;;;;;;;;;;;;16.12;60.66;101746.06;5091895;28;19931;-79
2022/05/26 09:32:46;;;;;;;;;;;;;;;16.10;60.10;101733.91;5083233;28;19920;-78
2022/05/26 09:35:14;;;;;;;;;;;;;;;16.13;60.74;101747.78;5090207;28;19956;-78
2022/05/26 09:37:44;;;;;;;;;;;;;;;16.09;61.09;101754.03;5092455;28;19978;-81
2022/05/26 09:40:20;;;;;;;;;;;;;;;16.11;61.09;101740.84;5092968;28;19924;-80
2022/05/26 09:42:48;;;;;;;;;;;;;;;16.05;60.15;101741.88;5093174;28;19954;-80
2022/05/26 09:45:16;;;;;;;;;;;;;;;16.10;59.08;101732.16;5071642;28;20132;-80
2022/05/26 09:47:57;;;;;;;;;;;;;;;16.10;57.63;101726.91;5078110;28;19919;-75
2022/05/26 09:50:37;;;;;;;;;;;;;;;16.14;60.10;101733.78;5087881;28;19977;-75
2022/05/26 09:53:05;;;;;;;;;;;;;;;16.14;58.26;101733.78;5086497;28;19928;-80
2022/05/26 09:55:32;;;;;;;;;;;;;;;16.12;57.91;101735.59;5068463;28;20019;-80
2022/05/26 09:58:05;;;;;;;;;;;;;;;16.22;59.21;101744.91;5084024;28;19920;-79
2022/05/26 10:00:34;;;;;;;;;;;;;;;16.26;58.67;101730.78;5089041;28;20010;-80
2022/05/26 10:03:02;;;;;;;;;;;;;;;16.31;58.28;101735.91;5068443;28;19963;-80
2022/05/26 10:05:43;;;;;;;;;;;;;;;16.30;55.95;101737.69;5086811;28;19927;-80
2022/05/26 10:08:27;;;;;;;;;;;;;;;16.32;56.77;101738.47;5091052;28;19921;-80
2022/05/26 10:10:57;;;;;;;;;;;;;;;16.27;56.19;101737.78;5083195;28;19947;-78
2022/05/26 10:13:22;;;;;;;;;;;;;;;16.29;56.59;101741.19;5089813;28;19928;-78
2022/05/26 10:15:53;;;;;;;;;;;;;;;16.29;56.62;101737.72;5088264;28;19981;-78
2022/05/26 10:18:26;;;;;;;;;;;;;;;16.30;57.41;101732.44;5085641;28;20344;-78
2022/05/26 10:20:59;;;;;;;;;;;;;;;16.34;55.63;101734.03;5090729;28;19954;-78
2022/05/26 10:23:30;;;;;;;;;;;;;;;16.33;56.36;101732.34;5090184;28;19931;-80
2022/05/26 10:25:59;;;;;;;;;;;;;;;16.31;56.53;101741.16;5065609;28;20005;-80
2022/05/26 10:28:43;;;;;;;;;;;;;;;16.22;56.98;101739.69;5084500;28;19932;-80
2022/05/26 10:31:11;;;;;;;;;;;;;;;16.29;56.26;101742.94;5085595;28;20025;-75
2022/05/26 10:33:45;;;;;;;;;;;;;;;16.23;56.75;101751.00;5085440;28;19928;-75
2022/05/26 10:36:13;;;;;;;;;;;;;;;16.17;56.60;101736.31;5086640;28;19920;-75
2022/05/26 10:38:57;;;;;;;;;;;;;;;16.17;57.13;101752.03;5085599;28;19924;-75
2022/05/26 10:41:26;;;;;;;;;;;;;;;16.18;56.48;101752.91;5082865;28;20471;-75
2022/05/26 10:44:12;;;;;;;;;;;;;;;16.17;55.28;101745.94;5087378;28;20447;-80
2022/05/26 10:46:39;;;;;;;;;;;;;;;16.12;55.65;101748.69;5088820;28;19927;-80
2022/05/26 10:49:04;;;;;;;;;;;;;;;16.23;55.24;101743.13;5085600;28;19928;-80
2022/05/26 10:51:31;;;;;;;;;;;;;;;16.27;55.73;101735.16;5096730;28;19934;-79
2022/05/26 10:54:00;;;;;;;;;;;;;;;16.35;56.82;101733.16;5071759;28;20289;-80
2022/05/26 10:56:31;;;;;;;;;;;;;;;16.56;53.76;101741.28;5092980;28;19975;-78
2022/05/26 10:59:08;;;;;;;;;;;;;;;16.48;52.64;101739.75;5087212;28;19928;-78
2022/05/26 11:01:35;;;;;;;;;;;;;;;16.45;53.03;101745.09;5085845;28;19935;-78
2022/05/26 11:04:09;;;;;;;;;;;;;;;16.39;53.39;101739.16;5085500;28;20382;-78
2022/05/26 11:06:37;;;;;;;;;;;;;;;16.42;53.75;101746.94;5100430;28;20335;-78
2022/05/26 11:09:26;;;;;;;;;;;;;;;16.44;53.19;101739.88;5090976;28;20015;-78
2022/05/26 11:11:58;;;;;;;;;;;;;;;16.46;53.27;101743.34;5092129;28;19927;-78
2022/05/26 11:17:22;;;;;;;;;;;;;;;16.51;54.93;101736.19;5088516;28;20008;-78
2022/05/26 11:20:02;;;;;;;;;;;;;;;16.58;53.19;101734.25;5093337;28;19924;-78
2022/05/26 11:22:28;;;;;;;;;;;;;;;16.75;52.71;101740.72;5088522;28;20006;-78
2022/05/26 11:24:56;;;;;;;;;;;;;;;16.79;50.55;101736.25;5057851;28;20018;-78
2022/05/26 11:27:36;;;;;;;;;;;;;;;16.80;50.84;101738.78;5078085;28;19924;-79
2022/05/26 11:30:06;;;;;;;;;;;;;;;16.79;50.24;101731.81;5091889;28;19920;-78
2022/05/26 11:38:20;;;;;;;;;;;;;;;16.80;51.56;101740.56;5096204;28;19930;-80
2022/05/26 11:40:55;;;;;;;;;;;;;;;16.70;51.60;101747.84;5087610;28;19924;-80
2022/05/26 11:43:41;;;;;;;;;;;;;;;16.69;52.09;101740.91;5090466;28;19962;-80
2022/05/26 11:46:08;;;;;;;;;;;;;;;16.83;51.42;101738.69;5095887;28;20003;-80
2022/05/26 11:48:33;;;;;;;;;;;;;;;16.83;51.66;101748.34;5097567;28;20350;-80
2022/05/26 11:51:02;;;;;;;;;;;;;;;16.81;49.51;101740.53;5087701;28;19916;-78
2022/05/26 11:53:27;;;;;;;;;;;;;;;16.78;49.77;101743.25;5087865;28;20017;-78
2022/05/26 11:55:54;;;;;;;;;;;;;;;16.81;49.81;101748.41;5095150;28;20077;-78
2022/05/26 11:58:19;;;;;;;;;;;;;;;16.78;50.99;101742.38;5054779;28;19920;-78
2022/05/26 12:00:45;;;;;;;;;;;;;;;16.86;50.52;101738.59;5096816;28;19931;-80
2022/05/26 12:03:30;;;;;;;;;;;;;;;16.86;50.35;101735.13;5057087;28;20072;-80
2022/05/26 12:06:04;;;;;;;;;;;;;;;16.83;50.42;101751.81;5087459;28;19920;-80
2022/05/26 12:08:31;;;;;;;;;;;;;;;16.92;49.15;101743.66;5092459;28;19940;-80
2022/05/26 12:10:59;;;;;;;;;;;;;;;16.88;48.29;101742.03;5092793;28;20020;-80
2022/05/26 12:13:27;;;;;;;;;;;;;;;16.88;49.91;101736.78;5090358;28;20375;-79
2022/05/26 12:16:13;;;;;;;;;;;;;;;16.89;50.19;101748.16;5092241;28;19928;-79
2022/05/26 12:18:42;;;;;;;;;;;;;;;16.96;48.04;101732.16;5085419;28;19967;-80
2022/05/26 12:21:16;;;;;;;;;;;;;;;17.08;48.98;101731.75;5097473;28;21543;-80
2022/05/26 12:23:42;;;;;;;;;;;;;;;16.96;48.81;101747.91;5086843;28;19920;-80
2022/05/26 12:26:26;;;;;;;;;;;;;;;17.04;49.00;101743.28;5087027;28;19928;-80
2022/05/26 12:28:52;;;;;;;;;;;;;;;17.12;47.24;101736.91;5087508;28;19955;-80
2022/05/26 12:31:17;;;;;;;;;;;;;;;17.11;47.99;101732.56;5096920;28;20481;-80
2022/05/26 12:34:02;;;;;;;;;;;;;;;17.10;47.65;101722.97;5080269;28;20454;-80
2022/05/26 12:36:45;;;;;;;;;;;;;;;17.06;48.52;101723.06;5106890;28;19941;-79
2022/05/26 12:39:17;;;;;;;;;;;;;;;17.19;47.38;101713.03;5093420;28;19920;-80
2022/05/26 12:41:48;;;;;;;;;;;;;;;17.28;47.03;101723.22;5096982;28;19923;-80
2022/05/26 12:44:29;;;;;;;;;;;;;;;17.31;47.23;101717.00;5090709;28;19920;-80
2022/05/26 12:47:13;;;;;;;;;;;;;;;17.19;48.86;101720.91;5086310;28;19916;-80
2022/05/26 12:49:57;;;;;;;;;;;;;;;17.33;47.33;101707.28;5086428;28;20019;-75
2022/05/26 12:52:52;;;;;;;;;;;;;;;17.51;47.72;101720.66;5083320;28;19936;-78
2022/05/26 12:55:28;;;;;;;;;;;;;;;17.53;46.55;101718.84;5078904;28;19970;-78
2022/05/26 12:57:56;;;;;;;;;;;;;;;17.52;46.20;101713.66;5095289;28;20779;-78
2022/05/26 13:00:31;;;;;;;;;;;;;;;17.40;49.64;101717.56;5102164;28;19920;-78
2022/05/26 13:02:59;;;;;;;;;;;;;;;17.52;48.72;101713.66;5085703;28;19916;-78
2022/05/26 13:05:29;;;;;;;;;;;;;;;17.67;48.56;101702.63;5097511;28;19924;-78
2022/05/26 13:07:55;;;;;;;;;;;;;;;17.71;49.01;101708.66;5092480;28;20010;-79
2022/05/26 13:10:25;;;;;;;;;;;;;;;17.64;49.55;101712.41;5088460;28;19924;-80
2022/05/26 13:12:51;;;;;;;;;;;;;;;17.67;48.36;101713.16;5062443;28;20009;-80
2022/05/26 13:15:21;;;;;;;;;;;;;;;17.50;49.79;101713.69;5081994;28;20007;-80
2022/05/26 13:17:48;;;;;;;;;;;;;;;17.52;49.82;101705.78;5101943;28;20296;-80
2022/05/26 13:20:28;;;;;;;;;;;;;;;17.52;49.91;101700.50;5089473;28;19927;-80
2022/05/26 13:22:53;;;;;;;;;;;;;;;17.54;49.65;101690.81;5091328;28;20006;-75